sensor_id;sensor_type;location;lat;lon;timestamp;temperature;humidity
63260;DHT22;49390;51.380;0.098;2023-08-12T00:03:38;18.90;99.90
63260;DHT22;49390;51.380;0.098;2023-08-12T00:06:07;18.90;99.90
63260;DHT22;49390;51.380;0.098;2023-08-12T00:08:35;18.90;99.90
63260;DHT22;49390;51.380;0.098;2023-08-12T00:11:03;18.90;99.90
63260;DHT22;49390;51.380;0.098;2023-08-12T00:13:31;18.90;99.90
63260;DHT22;49390;51.380;0.098;2023-08-12T00:15:59;18.90;99.90
63260;DHT22;49390;51.380;0.098;2023-08-12T00:18:27;18.90;99.90
63260;DHT22;49390;51.380;0.098;2023-08-12T00:20:56;18.90;99.90
63260;DHT22;49390;51.380;0.098;2023-08-12T00:23:25;19.00;99.90
63260;DHT22;49390;51.380;0.098;2023-08-12T00:25:58;19.00;99.90
63260;DHT22;49390;51.380;0.098;2023-08-12T00:28:26;18.90;99.90
63260;DHT22;49390;51.380;0.098;2023-08-12T00:30:54;18.90;99.90
63260;DHT22;49390;51.380;0.098;2023-08-12T00:33:22;18.90;99.90
63260;DHT22;49390;51.380;0.098;2023-08-12T00:35:50;18.90;99.90
63260;DHT22;49390;51.380;0.098;2023-08-12T00:38:18;18.90;99.90
63260;DHT22;49390;51.380;0.098;2023-08-12T00:40:46;18.90;99.90
63260;DHT22;49390;51.380;0.098;2023-08-12T00:43:14;18.90;99.90
63260;DHT22;49390;51.380;0.098;2023-08-12T00:45:43;18.90;99.90
63260;DHT22;49390;51.380;0.098;2023-08-12T00:48:14;18.90;99.90
63260;DHT22;49390;51.380;0.098;2023-08-12T00:50:43;18.90;99.90
63260;DHT22;49390;51.380;0.098;2023-08-12T00:53:11;18.90;99.90
63260;DHT22;49390;51.380;0.098;2023-08-12T00:55:40;18.90;99.90
63260;DHT22;49390;51.380;0.098;2023-08-12T00:58:08;18.80;99.90
63260;DHT22;49390;51.380;0.098;2023-08-12T01:00:37;18.90;99.90
63260;DHT22;49390;51.380;0.098;2023-08-12T01:03:05;18.90;99.90
63260;DHT22;49390;51.380;0.098;2023-08-12T01:05:35;18.80;99.90
63260;DHT22;49390;51.380;0.098;2023-08-12T01:08:06;18.80;99.90
63260;DHT22;49390;51.380;0.098;2023-08-12T01:10:37;18.80;99.90
63260;DHT22;49390;51.380;0.098;2023-08-12T01:16:07;18.70;99.90
63260;DHT22;49390;51.380;0.098;2023-08-12T01:21:01;18.70;99.90
63260;DHT22;49390;51.380;0.098;2023-08-12T01:23:32;18.70;99.90
63260;DHT22;49390;51.380;0.098;2023-08-12T01:26:00;18.70;99.90
63260;DHT22;49390;51.380;0.098;2023-08-12T01:28:28;18.60;99.90
63260;DHT22;49390;51.380;0.098;2023-08-12T01:31:06;18.60;99.90
63260;DHT22;49390;51.380;0.098;2023-08-12T01:34:01;18.60;99.90
63260;DHT22;49390;51.380;0.098;2023-08-12T01:36:29;18.60;99.90
63260;DHT22;49390;51.380;0.098;2023-08-12T01:39:00;18.60;99.90
63260;DHT22;49390;51.380;0.098;2023-08-12T01:41:31;18.60;99.90
63260;DHT22;49390;51.380;0.098;2023-08-12T01:44:02;18.50;99.90
63260;DHT22;49390;51.380;0.098;2023-08-12T01:46:31;18.50;99.90
63260;DHT22;49390;51.380;0.098;2023-08-12T01:51:25;18.40;99.90
63260;DHT22;49390;51.380;0.098;2023-08-12T01:53:53;18.30;99.90
63260;DHT22;49390;51.380;0.098;2023-08-12T01:56:21;18.30;99.90
63260;DHT22;49390;51.380;0.098;2023-08-12T01:58:49;18.30;99.90
63260;DHT22;49390;51.380;0.098;2023-08-12T02:01:18;18.20;99.90
63260;DHT22;49390;51.380;0.098;2023-08-12T02:03:47;18.20;99.90
63260;DHT22;49390;51.380;0.098;2023-08-12T02:06:16;18.20;99.90
63260;DHT22;49390;51.380;0.098;2023-08-12T02:08:45;18.20;99.90
63260;DHT22;49390;51.380;0.098;2023-08-12T02:11:13;18.20;99.90
63260;DHT22;49390;51.380;0.098;2023-08-12T02:13:42;18.10;99.90
63260;DHT22;49390;51.380;0.098;2023-08-12T02:16:10;18.10;99.90
63260;DHT22;49390;51.380;0.098;2023-08-12T02:18:39;18.10;99.90
63260;DHT22;49390;51.380;0.098;2023-08-12T02:21:06;18.00;99.90
63260;DHT22;49390;51.380;0.098;2023-08-12T02:23:34;18.00;99.90
63260;DHT22;49390;51.380;0.098;2023-08-12T02:26:03;17.90;99.90
63260;DHT22;49390;51.380;0.098;2023-08-12T02:28:31;17.90;99.90
63260;DHT22;49390;51.380;0.098;2023-08-12T02:30:59;17.80;99.90
63260;DHT22;49390;51.380;0.098;2023-08-12T02:33:29;17.80;99.90
63260;DHT22;49390;51.380;0.098;2023-08-12T02:35:57;17.70;99.90
63260;DHT22;49390;51.380;0.098;2023-08-12T02:38:25;17.70;99.90
63260;DHT22;49390;51.380;0.098;2023-08-12T02:40:53;17.60;99.90
63260;DHT22;49390;51.380;0.098;2023-08-12T02:43:22;17.60;99.90
63260;DHT22;49390;51.380;0.098;2023-08-12T02:45:49;17.60;99.90
63260;DHT22;49390;51.380;0.098;2023-08-12T02:48:18;17.60;99.90
63260;DHT22;49390;51.380;0.098;2023-08-12T02:50:46;17.50;99.90
63260;DHT22;49390;51.380;0.098;2023-08-12T02:53:15;17.50;99.90
63260;DHT22;49390;51.380;0.098;2023-08-12T02:55:44;17.40;99.90
63260;DHT22;49390;51.380;0.098;2023-08-12T02:58:13;17.40;99.90
63260;DHT22;49390;51.380;0.098;2023-08-12T03:00:42;17.40;99.90
63260;DHT22;49390;51.380;0.098;2023-08-12T03:03:12;17.30;99.90
63260;DHT22;49390;51.380;0.098;2023-08-12T03:05:40;17.30;99.90
63260;DHT22;49390;51.380;0.098;2023-08-12T03:08:09;17.20;99.90
63260;DHT22;49390;51.380;0.098;2023-08-12T03:10:37;17.20;99.90
63260;DHT22;49390;51.380;0.098;2023-08-12T03:13:06;17.10;99.90
63260;DHT22;49390;51.380;0.098;2023-08-12T03:15:34;17.10;99.90
63260;DHT22;49390;51.380;0.098;2023-08-12T03:18:06;17.10;99.90
63260;DHT22;49390;51.380;0.098;2023-08-12T03:20:34;17.10;99.90
63260;DHT22;49390;51.380;0.098;2023-08-12T03:23:03;17.00;99.90
63260;DHT22;49390;51.380;0.098;2023-08-12T03:25:31;17.00;99.90
63260;DHT22;49390;51.380;0.098;2023-08-12T03:28:00;17.00;99.90
63260;DHT22;49390;51.380;0.098;2023-08-12T03:30:28;17.00;99.90
63260;DHT22;49390;51.380;0.098;2023-08-12T03:32:57;16.90;99.90
63260;DHT22;49390;51.380;0.098;2023-08-12T03:35:29;16.90;99.90
63260;DHT22;49390;51.380;0.098;2023-08-12T03:37:57;16.90;99.90
63260;DHT22;49390;51.380;0.098;2023-08-12T03:40:25;16.90;99.90
63260;DHT22;49390;51.380;0.098;2023-08-12T03:42:54;16.90;99.90
63260;DHT22;49390;51.380;0.098;2023-08-12T03:45:24;16.90;99.90
63260;DHT22;49390;51.380;0.098;2023-08-12T03:47:53;17.00;99.90
63260;DHT22;49390;51.380;0.098;2023-08-12T03:50:22;17.00;99.90
63260;DHT22;49390;51.380;0.098;2023-08-12T03:52:50;17.00;99.90
63260;DHT22;49390;51.380;0.098;2023-08-12T03:55:18;17.00;99.90
63260;DHT22;49390;51.380;0.098;2023-08-12T03:57:47;17.00;99.90
63260;DHT22;49390;51.380;0.098;2023-08-12T04:00:15;17.00;99.90
63260;DHT22;49390;51.380;0.098;2023-08-12T04:02:44;17.10;99.90
63260;DHT22;49390;51.380;0.098;2023-08-12T04:05:12;17.10;99.90
63260;DHT22;49390;51.380;0.098;2023-08-12T04:07:41;17.10;99.90
63260;DHT22;49390;51.380;0.098;2023-08-12T04:10:09;17.10;99.90
63260;DHT22;49390;51.380;0.098;2023-08-12T04:12:39;17.10;99.90
63260;DHT22;49390;51.380;0.098;2023-08-12T04:15:08;17.10;99.90
63260;DHT22;49390;51.380;0.098;2023-08-12T04:17:36;17.10;99.90
63260;DHT22;49390;51.380;0.098;2023-08-12T04:20:07;17.10;99.90
63260;DHT22;49390;51.380;0.098;2023-08-12T04:22:37;17.10;99.90
63260;DHT22;49390;51.380;0.098;2023-08-12T04:25:05;17.10;99.90
63260;DHT22;49390;51.380;0.098;2023-08-12T04:27:33;17.10;99.90
63260;DHT22;49390;51.380;0.098;2023-08-12T04:30:02;17.10;99.90
63260;DHT22;49390;51.380;0.098;2023-08-12T04:32:35;17.10;99.90
63260;DHT22;49390;51.380;0.098;2023-08-12T04:35:03;17.10;99.90
63260;DHT22;49390;51.380;0.098;2023-08-12T04:37:33;17.10;99.90
63260;DHT22;49390;51.380;0.098;2023-08-12T04:40:02;17.00;99.90
63260;DHT22;49390;51.380;0.098;2023-08-12T04:42:37;17.00;99.90
63260;DHT22;49390;51.380;0.098;2023-08-12T04:45:08;17.00;99.90
63260;DHT22;49390;51.380;0.098;2023-08-12T04:47:36;17.00;99.90
63260;DHT22;49390;51.380;0.098;2023-08-12T04:50:05;17.00;99.90
63260;DHT22;49390;51.380;0.098;2023-08-12T04:52:34;17.10;99.90
63260;DHT22;49390;51.380;0.098;2023-08-12T04:55:03;17.10;99.90
63260;DHT22;49390;51.380;0.098;2023-08-12T04:57:32;17.10;99.90
63260;DHT22;49390;51.380;0.098;2023-08-12T05:00:01;17.20;99.90
63260;DHT22;49390;51.380;0.098;2023-08-12T05:02:30;17.10;99.90
63260;DHT22;49390;51.380;0.098;2023-08-12T05:04:59;17.20;99.90
63260;DHT22;49390;51.380;0.098;2023-08-12T05:07:28;17.20;99.90
63260;DHT22;49390;51.380;0.098;2023-08-12T05:09:56;17.20;99.90
63260;DHT22;49390;51.380;0.098;2023-08-12T05:12:25;17.20;99.90
63260;DHT22;49390;51.380;0.098;2023-08-12T05:14:52;17.20;99.90
63260;DHT22;49390;51.380;0.098;2023-08-12T05:17:21;17.20;99.90
63260;DHT22;49390;51.380;0.098;2023-08-12T05:19:49;17.20;99.90
63260;DHT22;49390;51.380;0.098;2023-08-12T05:22:18;17.20;99.90
63260;DHT22;49390;51.380;0.098;2023-08-12T05:24:46;17.20;99.90
63260;DHT22;49390;51.380;0.098;2023-08-12T05:27:15;17.20;99.90
63260;DHT22;49390;51.380;0.098;2023-08-12T05:29:43;17.20;99.90
63260;DHT22;49390;51.380;0.098;2023-08-12T05:32:11;17.20;99.90
63260;DHT22;49390;51.380;0.098;2023-08-12T05:34:40;17.20;99.90
63260;DHT22;49390;51.380;0.098;2023-08-12T05:37:08;17.20;99.90
63260;DHT22;49390;51.380;0.098;2023-08-12T05:39:36;17.20;99.90
63260;DHT22;49390;51.380;0.098;2023-08-12T05:42:05;17.30;99.90
63260;DHT22;49390;51.380;0.098;2023-08-12T05:44:33;17.30;99.90
63260;DHT22;49390;51.380;0.098;2023-08-12T05:47:01;17.30;99.90
63260;DHT22;49390;51.380;0.098;2023-08-12T05:49:29;17.30;99.90
63260;DHT22;49390;51.380;0.098;2023-08-12T05:52:29;17.40;99.90
63260;DHT22;49390;51.380;0.098;2023-08-12T05:54:57;17.40;99.90
63260;DHT22;49390;51.380;0.098;2023-08-12T05:57:26;17.40;99.90
63260;DHT22;49390;51.380;0.098;2023-08-12T05:59:56;17.40;99.90
63260;DHT22;49390;51.380;0.098;2023-08-12T06:02:25;17.40;99.90
63260;DHT22;49390;51.380;0.098;2023-08-12T06:04:54;17.40;99.90
63260;DHT22;49390;51.380;0.098;2023-08-12T06:07:22;17.40;99.90
63260;DHT22;49390;51.380;0.098;2023-08-12T06:09:51;17.50;99.90
63260;DHT22;49390;51.380;0.098;2023-08-12T06:12:19;17.60;99.90
63260;DHT22;49390;51.380;0.098;2023-08-12T06:14:47;17.60;99.90
63260;DHT22;49390;51.380;0.098;2023-08-12T06:17:15;17.60;99.90
63260;DHT22;49390;51.380;0.098;2023-08-12T06:19:43;17.70;99.90
63260;DHT22;49390;51.380;0.098;2023-08-12T06:22:11;17.70;99.90
63260;DHT22;49390;51.380;0.098;2023-08-12T06:24:40;17.80;99.90
63260;DHT22;49390;51.380;0.098;2023-08-12T06:27:08;17.80;99.90
63260;DHT22;49390;51.380;0.098;2023-08-12T06:29:36;17.80;99.90
63260;DHT22;49390;51.380;0.098;2023-08-12T06:32:04;17.80;99.90
63260;DHT22;49390;51.380;0.098;2023-08-12T06:34:32;17.80;99.90
63260;DHT22;49390;51.380;0.098;2023-08-12T06:37:00;17.80;99.90
63260;DHT22;49390;51.380;0.098;2023-08-12T06:39:28;17.90;99.90
63260;DHT22;49390;51.380;0.098;2023-08-12T06:41:56;17.80;99.90
63260;DHT22;49390;51.380;0.098;2023-08-12T06:44:24;17.90;99.90
63260;DHT22;49390;51.380;0.098;2023-08-12T06:46:52;17.90;99.90
63260;DHT22;49390;51.380;0.098;2023-08-12T06:49:20;18.00;99.90
63260;DHT22;49390;51.380;0.098;2023-08-12T06:51:48;18.00;99.90
63260;DHT22;49390;51.380;0.098;2023-08-12T06:54:16;18.00;99.90
63260;DHT22;49390;51.380;0.098;2023-08-12T06:56:47;18.10;99.90
63260;DHT22;49390;51.380;0.098;2023-08-12T06:59:15;18.10;99.90
63260;DHT22;49390;51.380;0.098;2023-08-12T07:01:43;18.10;99.90
63260;DHT22;49390;51.380;0.098;2023-08-12T07:04:11;18.20;99.90
63260;DHT22;49390;51.380;0.098;2023-08-12T07:06:39;18.20;99.90
63260;DHT22;49390;51.380;0.098;2023-08-12T07:09:07;18.20;99.90
63260;DHT22;49390;51.380;0.098;2023-08-12T07:11:36;18.30;99.90
63260;DHT22;49390;51.380;0.098;2023-08-12T07:14:04;18.40;99.90
63260;DHT22;49390;51.380;0.098;2023-08-12T07:16:33;18.70;99.90
63260;DHT22;49390;51.380;0.098;2023-08-12T07:19:01;19.10;99.90
63260;DHT22;49390;51.380;0.098;2023-08-12T07:21:29;19.50;99.90
63260;DHT22;49390;51.380;0.098;2023-08-12T07:23:58;19.80;99.90
63260;DHT22;49390;51.380;0.098;2023-08-12T07:26:31;20.20;99.90
63260;DHT22;49390;51.380;0.098;2023-08-12T07:28:59;20.50;99.90
63260;DHT22;49390;51.380;0.098;2023-08-12T07:31:27;20.90;99.90
63260;DHT22;49390;51.380;0.098;2023-08-12T07:33:56;21.30;99.90
63260;DHT22;49390;51.380;0.098;2023-08-12T07:36:24;21.70;99.90
63260;DHT22;49390;51.380;0.098;2023-08-12T07:38:52;22.00;99.90
63260;DHT22;49390;51.380;0.098;2023-08-12T07:41:20;22.30;99.90
63260;DHT22;49390;51.380;0.098;2023-08-12T07:43:48;22.50;99.90
63260;DHT22;49390;51.380;0.098;2023-08-12T07:46:16;22.80;99.90
63260;DHT22;49390;51.380;0.098;2023-08-12T07:48:44;23.00;97.10
63260;DHT22;49390;51.380;0.098;2023-08-12T07:51:12;23.20;95.20
63260;DHT22;49390;51.380;0.098;2023-08-12T07:53:41;23.20;94.20
63260;DHT22;49390;51.380;0.098;2023-08-12T07:56:09;23.20;92.90
63260;DHT22;49390;51.380;0.098;2023-08-12T07:58:37;23.20;92.60
63260;DHT22;49390;51.380;0.098;2023-08-12T08:01:05;23.20;90.90
63260;DHT22;49390;51.380;0.098;2023-08-12T08:03:34;23.10;90.40
63260;DHT22;49390;51.380;0.098;2023-08-12T08:06:02;23.10;90.40
63260;DHT22;49390;51.380;0.098;2023-08-12T08:08:30;23.30;90.10
63260;DHT22;49390;51.380;0.098;2023-08-12T08:10:58;23.60;88.90
63260;DHT22;49390;51.380;0.098;2023-08-12T08:13:26;23.80;85.40
63260;DHT22;49390;51.380;0.098;2023-08-12T08:15:54;24.00;81.70
63260;DHT22;49390;51.380;0.098;2023-08-12T08:18:22;24.10;80.00
63260;DHT22;49390;51.380;0.098;2023-08-12T08:20:50;24.20;78.40
63260;DHT22;49390;51.380;0.098;2023-08-12T08:23:19;24.50;76.60
63260;DHT22;49390;51.380;0.098;2023-08-12T08:25:47;24.70;75.00
63260;DHT22;49390;51.380;0.098;2023-08-12T08:28:16;24.80;74.00
63260;DHT22;49390;51.380;0.098;2023-08-12T08:30:43;25.00;73.30
63260;DHT22;49390;51.380;0.098;2023-08-12T08:33:12;25.10;72.30
63260;DHT22;49390;51.380;0.098;2023-08-12T08:35:40;25.30;70.70
63260;DHT22;49390;51.380;0.098;2023-08-12T08:38:08;25.50;69.80
63260;DHT22;49390;51.380;0.098;2023-08-12T08:40:36;25.70;68.90
63260;DHT22;49390;51.380;0.098;2023-08-12T08:43:07;25.90;68.00
63260;DHT22;49390;51.380;0.098;2023-08-12T08:45:37;26.20;66.70
63260;DHT22;49390;51.380;0.098;2023-08-12T08:48:07;26.30;64.80
63260;DHT22;49390;51.380;0.098;2023-08-12T08:52:31;26.40;62.10
63260;DHT22;49390;51.380;0.098;2023-08-12T08:55:00;26.30;61.90
63260;DHT22;49390;51.380;0.098;2023-08-12T08:57:34;26.20;60.80
63260;DHT22;49390;51.380;0.098;2023-08-12T09:00:18;26.10;61.30
63260;DHT22;49390;51.380;0.098;2023-08-12T09:02:49;26.10;61.90
63260;DHT22;49390;51.380;0.098;2023-08-12T09:05:19;26.10;61.60
63260;DHT22;49390;51.380;0.098;2023-08-12T09:07:49;26.00;61.90
63260;DHT22;49390;51.380;0.098;2023-08-12T09:10:20;26.10;61.80
63260;DHT22;49390;51.380;0.098;2023-08-12T09:12:51;26.20;61.20
63260;DHT22;49390;51.380;0.098;2023-08-12T09:15:20;26.30;60.70
63260;DHT22;49390;51.380;0.098;2023-08-12T09:17:49;26.40;60.40
63260;DHT22;49390;51.380;0.098;2023-08-12T09:20:17;26.40;59.70
63260;DHT22;49390;51.380;0.098;2023-08-12T09:22:55;26.30;59.00
63260;DHT22;49390;51.380;0.098;2023-08-12T09:25:29;26.20;58.80
63260;DHT22;49390;51.380;0.098;2023-08-12T09:28:00;26.00;58.60
63260;DHT22;49390;51.380;0.098;2023-08-12T09:30:31;25.90;58.20
63260;DHT22;49390;51.380;0.098;2023-08-12T09:33:02;25.60;58.50
63260;DHT22;49390;51.380;0.098;2023-08-12T09:35:41;25.60;59.20
63260;DHT22;49390;51.380;0.098;2023-08-12T09:38:13;25.60;59.50
63260;DHT22;49390;51.380;0.098;2023-08-12T09:40:43;25.60;59.50
63260;DHT22;49390;51.380;0.098;2023-08-12T09:43:11;25.10;59.10
63260;DHT22;49390;51.380;0.098;2023-08-12T09:45:40;25.60;59.10
63260;DHT22;49390;51.380;0.098;2023-08-12T09:48:09;25.50;59.10
63260;DHT22;49390;51.380;0.098;2023-08-12T09:50:38;25.60;59.00
63260;DHT22;49390;51.380;0.098;2023-08-12T09:53:06;25.60;58.80
63260;DHT22;49390;51.380;0.098;2023-08-12T09:55:38;25.60;58.30
63260;DHT22;49390;51.380;0.098;2023-08-12T09:58:06;25.40;58.20
63260;DHT22;49390;51.380;0.098;2023-08-12T10:00:38;25.30;58.60
63260;DHT22;49390;51.380;0.098;2023-08-12T10:03:06;25.20;58.80
63260;DHT22;49390;51.380;0.098;2023-08-12T10:05:34;25.00;59.20
63260;DHT22;49390;51.380;0.098;2023-08-12T10:08:03;25.00;59.80
63260;DHT22;49390;51.380;0.098;2023-08-12T10:10:34;25.00;59.40
63260;DHT22;49390;51.380;0.098;2023-08-12T10:13:03;25.00;58.90
63260;DHT22;49390;51.380;0.098;2023-08-12T10:15:36;24.90;58.90
63260;DHT22;49390;51.380;0.098;2023-08-12T10:18:05;24.90;58.60
63260;DHT22;49390;51.380;0.098;2023-08-12T10:20:44;24.70;58.50
63260;DHT22;49390;51.380;0.098;2023-08-12T10:23:15;24.70;59.00
63260;DHT22;49390;51.380;0.098;2023-08-12T10:25:44;24.80;59.40
63260;DHT22;49390;51.380;0.098;2023-08-12T10:28:12;25.00;59.40
63260;DHT22;49390;51.380;0.098;2023-08-12T10:30:41;25.10;58.90
63260;DHT22;49390;51.380;0.098;2023-08-12T10:33:10;25.20;58.90
63260;DHT22;49390;51.380;0.098;2023-08-12T10:35:45;25.40;58.30
63260;DHT22;49390;51.380;0.098;2023-08-12T10:38:17;25.40;57.60
63260;DHT22;49390;51.380;0.098;2023-08-12T10:40:47;25.40;57.60
63260;DHT22;49390;51.380;0.098;2023-08-12T10:43:15;25.30;57.60
63260;DHT22;49390;51.380;0.098;2023-08-12T10:45:47;25.20;57.60
63260;DHT22;49390;51.380;0.098;2023-08-12T10:48:17;25.10;58.00
63260;DHT22;49390;51.380;0.098;2023-08-12T10:50:58;24.90;58.20
63260;DHT22;49390;51.380;0.098;2023-08-12T10:53:32;24.80;59.60
63260;DHT22;49390;51.380;0.098;2023-08-12T10:56:03;24.70;59.40
63260;DHT22;49390;51.380;0.098;2023-08-12T11:01:18;24.40;60.00
63260;DHT22;49390;51.380;0.098;2023-08-12T11:03:48;24.20;60.60
63260;DHT22;49390;51.380;0.098;2023-08-12T11:06:19;24.00;61.00
63260;DHT22;49390;51.380;0.098;2023-08-12T11:08:51;23.90;61.60
63260;DHT22;49390;51.380;0.098;2023-08-12T11:11:23;23.90;61.80
63260;DHT22;49390;51.380;0.098;2023-08-12T11:13:56;23.90;61.90
63260;DHT22;49390;51.380;0.098;2023-08-12T11:16:39;23.90;61.90
63260;DHT22;49390;51.380;0.098;2023-08-12T11:19:10;24.00;61.90
63260;DHT22;49390;51.380;0.098;2023-08-12T11:21:41;24.20;61.70
63260;DHT22;49390;51.380;0.098;2023-08-12T11:24:10;24.30;61.30
63260;DHT22;49390;51.380;0.098;2023-08-12T11:26:51;24.40;61.20
63260;DHT22;49390;51.380;0.098;2023-08-12T11:29:20;24.50;61.10
63260;DHT22;49390;51.380;0.098;2023-08-12T11:31:48;24.60;61.10
63260;DHT22;49390;51.380;0.098;2023-08-12T11:34:16;24.60;61.00
63260;DHT22;49390;51.380;0.098;2023-08-12T11:36:45;24.70;61.80
63260;DHT22;49390;51.380;0.098;2023-08-12T11:39:13;24.60;61.30
63260;DHT22;49390;51.380;0.098;2023-08-12T11:41:42;24.50;61.90
63260;DHT22;49390;51.380;0.098;2023-08-12T11:44:16;24.30;62.40
63260;DHT22;49390;51.380;0.098;2023-08-12T11:46:44;24.10;62.90
63260;DHT22;49390;51.380;0.098;2023-08-12T11:49:12;23.80;63.90
63260;DHT22;49390;51.380;0.098;2023-08-12T11:51:42;23.60;65.00
63260;DHT22;49390;51.380;0.098;2023-08-12T11:54:11;23.50;65.50
63260;DHT22;49390;51.380;0.098;2023-08-12T11:56:40;23.60;65.30
63260;DHT22;49390;51.380;0.098;2023-08-12T11:59:08;23.70;65.60
63260;DHT22;49390;51.380;0.098;2023-08-12T12:01:37;23.80;65.60
63260;DHT22;49390;51.380;0.098;2023-08-12T12:04:05;23.90;65.80
63260;DHT22;49390;51.380;0.098;2023-08-12T12:06:36;23.90;66.10
63260;DHT22;49390;51.380;0.098;2023-08-12T12:09:07;23.90;66.50
63260;DHT22;49390;51.380;0.098;2023-08-12T12:11:38;24.00;67.00
63260;DHT22;49390;51.380;0.098;2023-08-12T12:14:10;24.00;67.50
63260;DHT22;49390;51.380;0.098;2023-08-12T12:16:44;24.00;67.90
63260;DHT22;49390;51.380;0.098;2023-08-12T12:19:17;24.00;68.70
63260;DHT22;49390;51.380;0.098;2023-08-12T12:21:49;24.00;69.50
63260;DHT22;49390;51.380;0.098;2023-08-12T12:24:18;23.90;70.20
63260;DHT22;49390;51.380;0.098;2023-08-12T12:26:47;23.90;70.90
63260;DHT22;49390;51.380;0.098;2023-08-12T12:29:17;23.90;71.20
63260;DHT22;49390;51.380;0.098;2023-08-12T12:31:46;23.90;71.20
63260;DHT22;49390;51.380;0.098;2023-08-12T12:34:14;24.00;71.00
63260;DHT22;49390;51.380;0.098;2023-08-12T12:36:42;23.90;70.80
63260;DHT22;49390;51.380;0.098;2023-08-12T12:39:10;24.00;71.10
63260;DHT22;49390;51.380;0.098;2023-08-12T12:41:39;24.10;70.60
63260;DHT22;49390;51.380;0.098;2023-08-12T12:44:07;24.20;70.10
63260;DHT22;49390;51.380;0.098;2023-08-12T12:48:35;24.30;69.00
63260;DHT22;49390;51.380;0.098;2023-08-12T12:51:04;24.20;69.80
63260;DHT22;49390;51.380;0.098;2023-08-12T12:53:32;24.00;70.10
63260;DHT22;49390;51.380;0.098;2023-08-12T12:56:00;23.90;70.90
63260;DHT22;49390;51.380;0.098;2023-08-12T12:58:32;23.70;71.60
63260;DHT22;49390;51.380;0.098;2023-08-12T13:01:02;23.60;72.40
63260;DHT22;49390;51.380;0.098;2023-08-12T13:03:31;23.60;72.90
63260;DHT22;49390;51.380;0.098;2023-08-12T13:05:59;23.70;73.10
63260;DHT22;49390;51.380;0.098;2023-08-12T13:08:29;23.70;72.90
63260;DHT22;49390;51.380;0.098;2023-08-12T13:10:59;23.60;72.80
63260;DHT22;49390;51.380;0.098;2023-08-12T13:13:27;23.60;72.80
63260;DHT22;49390;51.380;0.098;2023-08-12T13:15:57;23.60;71.80
63260;DHT22;49390;51.380;0.098;2023-08-12T13:18:25;23.70;71.60
63260;DHT22;49390;51.380;0.098;2023-08-12T13:20:53;23.80;71.20
63260;DHT22;49390;51.380;0.098;2023-08-12T13:23:21;23.90;70.30
63260;DHT22;49390;51.380;0.098;2023-08-12T13:25:49;24.00;69.30
63260;DHT22;49390;51.380;0.098;2023-08-12T13:28:17;24.10;68.20
63260;DHT22;49390;51.380;0.098;2023-08-12T13:30:45;24.10;66.90
63260;DHT22;49390;51.380;0.098;2023-08-12T13:33:14;24.10;66.30
63260;DHT22;49390;51.380;0.098;2023-08-12T13:35:44;24.10;65.80
63260;DHT22;49390;51.380;0.098;2023-08-12T13:38:12;24.00;66.20
63260;DHT22;49390;51.380;0.098;2023-08-12T13:40:40;23.90;66.80
63260;DHT22;49390;51.380;0.098;2023-08-12T13:43:09;23.90;67.00
63260;DHT22;49390;51.380;0.098;2023-08-12T13:45:37;23.90;66.60
63260;DHT22;49390;51.380;0.098;2023-08-12T13:48:05;23.90;66.50
63260;DHT22;49390;51.380;0.098;2023-08-12T13:50:33;23.90;66.40
63260;DHT22;49390;51.380;0.098;2023-08-12T13:53:01;23.80;66.60
63260;DHT22;49390;51.380;0.098;2023-08-12T13:55:32;23.60;67.10
63260;DHT22;49390;51.380;0.098;2023-08-12T13:58:00;23.50;67.70
63260;DHT22;49390;51.380;0.098;2023-08-12T14:00:28;23.40;68.50
63260;DHT22;49390;51.380;0.098;2023-08-12T14:02:58;23.30;69.30
63260;DHT22;49390;51.380;0.098;2023-08-12T14:05:27;23.10;70.20
63260;DHT22;49390;51.380;0.098;2023-08-12T14:07:55;23.00;71.10
63260;DHT22;49390;51.380;0.098;2023-08-12T14:10:23;23.00;71.60
63260;DHT22;49390;51.380;0.098;2023-08-12T14:12:51;22.90;72.00
63260;DHT22;49390;51.380;0.098;2023-08-12T14:15:20;23.00;72.30
63260;DHT22;49390;51.380;0.098;2023-08-12T14:17:51;23.10;72.10
63260;DHT22;49390;51.380;0.098;2023-08-12T14:20:19;23.20;71.90
63260;DHT22;49390;51.380;0.098;2023-08-12T14:22:47;23.30;71.70
63260;DHT22;49390;51.380;0.098;2023-08-12T14:25:15;23.30;71.30
63260;DHT22;49390;51.380;0.098;2023-08-12T14:27:43;23.30;71.20
63260;DHT22;49390;51.380;0.098;2023-08-12T14:30:14;23.30;71.20
63260;DHT22;49390;51.380;0.098;2023-08-12T14:32:42;23.40;71.10
63260;DHT22;49390;51.380;0.098;2023-08-12T14:35:11;23.40;71.00
63260;DHT22;49390;51.380;0.098;2023-08-12T14:37:39;23.40;71.00
63260;DHT22;49390;51.380;0.098;2023-08-12T14:40:08;23.50;71.10
63260;DHT22;49390;51.380;0.098;2023-08-12T14:42:37;23.50;71.10
63260;DHT22;49390;51.380;0.098;2023-08-12T14:45:05;23.50;71.00
63260;DHT22;49390;51.380;0.098;2023-08-12T14:47:34;23.50;71.10
63260;DHT22;49390;51.380;0.098;2023-08-12T14:50:02;23.50;71.50
63260;DHT22;49390;51.380;0.098;2023-08-12T14:52:32;23.50;71.90
63260;DHT22;49390;51.380;0.098;2023-08-12T14:55:00;23.50;72.70
63260;DHT22;49390;51.380;0.098;2023-08-12T14:57:28;23.40;73.20
63260;DHT22;49390;51.380;0.098;2023-08-12T14:59:58;23.40;73.20
63260;DHT22;49390;51.380;0.098;2023-08-12T15:02:26;23.30;73.10
63260;DHT22;49390;51.380;0.098;2023-08-12T15:04:59;23.10;73.50
63260;DHT22;49390;51.380;0.098;2023-08-12T15:07:28;23.10;74.10
63260;DHT22;49390;51.380;0.098;2023-08-12T15:09:56;23.00;75.10
63260;DHT22;49390;51.380;0.098;2023-08-12T15:12:25;22.90;74.70
63260;DHT22;49390;51.380;0.098;2023-08-12T15:14:56;22.90;75.10
63260;DHT22;49390;51.380;0.098;2023-08-12T15:17:24;22.90;75.50
63260;DHT22;49390;51.380;0.098;2023-08-12T15:19:53;22.90;74.60
63260;DHT22;49390;51.380;0.098;2023-08-12T15:22:20;22.90;74.80
63260;DHT22;49390;51.380;0.098;2023-08-12T15:24:49;22.90;75.30
63260;DHT22;49390;51.380;0.098;2023-08-12T15:27:17;22.90;75.40
63260;DHT22;49390;51.380;0.098;2023-08-12T15:29:46;23.10;75.20
63260;DHT22;49390;51.380;0.098;2023-08-12T15:32:14;23.20;74.90
63260;DHT22;49390;51.380;0.098;2023-08-12T15:34:43;23.30;74.50
63260;DHT22;49390;51.380;0.098;2023-08-12T15:37:11;23.40;74.40
63260;DHT22;49390;51.380;0.098;2023-08-12T15:39:40;23.50;74.50
63260;DHT22;49390;51.380;0.098;2023-08-12T15:42:10;23.60;74.40
63260;DHT22;49390;51.380;0.098;2023-08-12T15:44:38;23.70;74.40
63260;DHT22;49390;51.380;0.098;2023-08-12T15:47:09;23.70;74.70
63260;DHT22;49390;51.380;0.098;2023-08-12T15:49:38;23.70;75.30
63260;DHT22;49390;51.380;0.098;2023-08-12T15:52:09;23.80;75.70
63260;DHT22;49390;51.380;0.098;2023-08-12T15:54:37;23.80;75.90
63260;DHT22;49390;51.380;0.098;2023-08-12T15:57:05;23.70;76.30
63260;DHT22;49390;51.380;0.098;2023-08-12T15:59:33;23.60;76.70